createdAt,value
2022-10-01T00:01:15.231Z,5.75
2022-10-01T00:03:43.743Z,5.50
2022-10-01T00:06:13.426Z,5.00
2022-10-01T00:08:42.748Z,6.95
2022-10-01T00:11:12.390Z,5.90
2022-10-01T00:13:40.421Z,5.85
2022-10-01T00:16:14.135Z,9.88
2022-10-01T00:18:43.951Z,7.03
2022-10-01T00:21:13.588Z,5.70
2022-10-01T00:23:42.515Z,5.82
2022-10-01T00:26:12.636Z,6.55
2022-10-01T00:28:40.374Z,6.70
2022-10-01T00:31:11.190Z,5.00
2022-10-01T00:33:39.567Z,7.10
2022-10-01T00:36:09.910Z,5.90
2022-10-01T00:38:37.989Z,6.22
2022-10-01T00:41:06.158Z,6.10
2022-10-01T00:43:36.848Z,3.72
2022-10-01T00:46:10.714Z,3.42
2022-10-01T00:48:48.898Z,6.60
2022-10-01T00:51:16.637Z,5.97
2022-10-01T00:53:46.038Z,4.93
2022-10-01T00:56:14.065Z,5.57
2022-10-01T00:58:43.710Z,6.40
2022-10-01T01:01:11.529Z,3.55
2022-10-01T01:03:40.840Z,4.85
2022-10-01T01:06:09.842Z,3.42
2022-10-01T01:08:37.672Z,2.47
2022-10-01T01:11:13.151Z,2.80
2022-10-01T01:13:50.149Z,2.30
2022-10-01T01:16:26.293Z,4.20
2022-10-01T01:19:03.169Z,3.03
2022-10-01T01:21:35.166Z,3.10
2022-10-01T01:24:16.113Z,3.58
2022-10-01T01:26:55.953Z,3.00
2022-10-01T01:29:30.283Z,3.30
2022-10-01T01:32:02.510Z,2.53
2022-10-01T01:34:32.633Z,3.35
2022-10-01T01:37:04.978Z,2.22
2022-10-01T01:39:34.607Z,2.78
2022-10-01T01:42:09.310Z,2.50
2022-10-01T01:44:43.970Z,1.50
2022-10-01T01:47:13.653Z,2.22
2022-10-01T01:49:43.913Z,2.55
2022-10-01T01:52:15.865Z,2.23
2022-10-01T01:54:46.810Z,3.35
2022-10-01T01:57:15.444Z,3.30
2022-10-01T01:59:44.863Z,3.05
2022-10-01T02:02:14.944Z,3.85
2022-10-01T02:04:46.112Z,4.50
2022-10-01T02:07:52.703Z,3.85
2022-10-01T02:10:34.625Z,2.95
2022-10-01T02:13:20.174Z,3.92
2022-10-01T02:16:01.221Z,2.40
2022-10-01T02:18:34.978Z,2.53
2022-10-01T02:21:18.099Z,2.30
2022-10-01T02:23:50.017Z,2.33
2022-10-01T02:26:22.013Z,2.33
2022-10-01T02:28:54.195Z,2.75
2022-10-01T02:31:24.540Z,2.53
2022-10-01T02:33:55.389Z,2.20
2022-10-01T02:36:26.002Z,2.10
2022-10-01T02:38:55.747Z,2.10
2022-10-01T02:41:29.957Z,2.97
2022-10-01T02:44:02.299Z,3.58
2022-10-01T02:46:37.706Z,3.42
2022-10-01T02:49:05.889Z,3.33
2022-10-01T02:51:44.129Z,2.93
2022-10-01T02:54:17.054Z,3.23
2022-10-01T02:57:02.562Z,4.63
2022-10-01T02:59:30.193Z,5.03
2022-10-01T03:01:59.254Z,3.40
2022-10-01T03:04:27.200Z,4.43
2022-10-01T03:06:54.726Z,2.23
2022-10-01T03:09:22.322Z,5.73
2022-10-01T03:11:50.099Z,4.03
2022-10-01T03:14:17.795Z,2.73
2022-10-01T03:16:45.566Z,3.50
2022-10-01T03:19:14.673Z,2.77
2022-10-01T03:21:42.370Z,1.40
2022-10-01T03:24:10.201Z,2.80
2022-10-01T03:26:38.255Z,1.17
2022-10-01T03:29:06.217Z,1.70
2022-10-01T03:31:34.263Z,1.77
2022-10-01T03:34:01.998Z,2.23
2022-10-01T03:36:31.234Z,2.30
2022-10-01T03:38:58.825Z,1.93
2022-10-01T03:41:26.422Z,3.37
2022-10-01T03:43:58.323Z,2.40
2022-10-01T03:46:28.283Z,1.57
2022-10-01T03:48:57.209Z,1.57
2022-10-01T03:51:25.320Z,3.07
2022-10-01T03:53:54.342Z,2.30
2022-10-01T03:56:22.343Z,3.33
2022-10-01T03:58:50.208Z,2.30
2022-10-01T04:01:18.067Z,2.00
2022-10-01T04:03:46.339Z,4.43
2022-10-01T04:06:14.485Z,3.57
2022-10-01T04:08:42.094Z,2.13
2022-10-01T04:11:11.697Z,3.20
2022-10-01T04:13:39.301Z,3.53
2022-10-01T04:16:07.779Z,2.83
2022-10-01T04:18:35.727Z,2.60
2022-10-01T04:21:04.578Z,1.67
2022-10-01T04:23:32.349Z,3.97
2022-10-01T04:26:02.304Z,2.10
2022-10-01T04:28:31.984Z,3.97
2022-10-01T04:31:13.777Z,5.33
2022-10-01T04:33:41.714Z,2.90
2022-10-01T04:36:09.356Z,2.10
2022-10-01T04:38:37.122Z,3.67
2022-10-01T04:41:04.687Z,4.23
2022-10-01T04:43:33.681Z,3.57
2022-10-01T04:46:01.271Z,4.13
2022-10-01T04:48:28.993Z,9.13
2022-10-01T04:50:56.554Z,3.60
2022-10-01T04:53:24.422Z,3.83
2022-10-01T04:55:52.181Z,5.10
2022-10-01T04:58:19.761Z,3.57
2022-10-01T05:00:49.382Z,5.27
2022-10-01T05:03:18.201Z,5.03
2022-10-01T05:05:45.799Z,5.87
2022-10-01T05:08:13.450Z,5.07
2022-10-01T05:10:41.104Z,3.70
2022-10-01T05:13:08.944Z,4.27
2022-10-01T05:15:36.973Z,6.83
2022-10-01T05:18:06.157Z,12.37
2022-10-01T05:20:34.633Z,4.03
2022-10-01T05:23:02.158Z,4.30
2022-10-01T05:25:29.749Z,5.47
2022-10-01T05:28:05.251Z,4.57
2022-10-01T05:30:34.016Z,2.43
2022-10-01T05:33:03.691Z,3.80
2022-10-01T05:35:32.876Z,2.37
2022-10-01T05:38:02.611Z,3.30
2022-10-01T05:40:31.314Z,6.67
2022-10-01T05:43:00.460Z,5.17
2022-10-01T05:45:29.195Z,2.97
2022-10-01T05:47:58.683Z,3.43
2022-10-01T05:50:26.627Z,2.97
2022-10-01T05:52:55.820Z,3.07
2022-10-01T05:55:24.873Z,2.83
2022-10-01T05:57:59.430Z,2.10
2022-10-01T06:00:29.179Z,4.03
2022-10-01T06:02:57.834Z,3.50
2022-10-01T06:05:26.301Z,4.43
2022-10-01T06:07:55.508Z,1.93
2022-10-01T06:10:24.727Z,2.60
2022-10-01T06:12:52.959Z,3.43
2022-10-01T06:15:20.862Z,2.67
2022-10-01T06:17:48.499Z,4.43
2022-10-01T06:20:19.196Z,3.43
2022-10-01T06:22:55.953Z,3.27
2022-10-01T06:25:24.426Z,4.67
2022-10-01T06:27:55.324Z,2.33
2022-10-01T06:30:23.300Z,1.57
2022-10-01T06:32:50.860Z,3.53
2022-10-01T06:35:20.253Z,2.20
2022-10-01T06:37:48.184Z,2.97
2022-10-01T06:40:17.354Z,1.53
2022-10-01T06:42:48.773Z,1.97
2022-10-01T06:45:17.850Z,2.00
2022-10-01T06:47:45.466Z,1.30
2022-10-01T06:50:12.998Z,2.20
2022-10-01T06:52:52.468Z,3.00
2022-10-01T06:55:23.245Z,1.80
2022-10-01T06:57:55.413Z,1.60
2022-10-01T07:00:23.895Z,2.40
2022-10-01T07:02:51.816Z,2.07
2022-10-01T07:05:19.697Z,3.40
2022-10-01T07:07:48.273Z,1.07
2022-10-01T07:10:17.159Z,1.37
2022-10-01T07:12:48.864Z,2.47
2022-10-01T07:15:17.887Z,2.73
2022-10-01T07:17:48.312Z,2.30
2022-10-01T07:20:17.654Z,2.03
2022-10-01T07:22:46.286Z,1.53
2022-10-01T07:25:14.695Z,1.53
2022-10-01T07:27:42.635Z,1.23
2022-10-01T07:30:12.683Z,1.37
2022-10-01T07:32:40.351Z,1.77
2022-10-01T07:35:09.006Z,2.70
2022-10-01T07:37:37.222Z,2.00
2022-10-01T07:40:07.492Z,1.43
2022-10-01T07:42:35.549Z,1.90
2022-10-01T07:45:06.696Z,1.27
2022-10-01T07:47:35.914Z,0.87
2022-10-01T07:50:03.717Z,1.37
2022-10-01T07:52:31.237Z,1.03
2022-10-01T07:54:58.778Z,1.77
2022-10-01T07:57:26.340Z,1.10
2022-10-01T07:59:56.013Z,0.90
2022-10-01T08:02:23.975Z,0.87
2022-10-01T08:05:10.492Z,1.07
2022-10-01T08:07:38.063Z,1.07
2022-10-01T08:10:06.573Z,1.13
2022-10-01T08:12:34.246Z,1.13
2022-10-01T08:15:02.130Z,0.70
2022-10-01T08:17:29.760Z,1.03
2022-10-01T08:19:58.688Z,0.93
2022-10-01T08:22:26.465Z,3.13
2022-10-01T08:24:54.156Z,0.27
2022-10-01T08:27:21.904Z,1.17
2022-10-01T08:29:49.612Z,1.73
2022-10-01T08:32:17.148Z,1.20
2022-10-01T08:34:44.686Z,0.30
2022-10-01T08:37:14.313Z,0.17
2022-10-01T08:39:41.890Z,0.20
2022-10-01T08:42:22.590Z,0.77
2022-10-01T08:44:53.188Z,1.13
2022-10-01T08:47:34.882Z,0.20
2022-10-01T08:50:13.044Z,0.40
2022-10-01T08:52:49.443Z,1.00
2022-10-01T08:55:21.355Z,0.30
2022-10-01T08:57:53.051Z,1.17
2022-10-01T09:00:21.282Z,0.53
2022-10-01T09:02:50.432Z,2.27
2022-10-01T09:05:24.734Z,0.30
2022-10-01T09:08:15.265Z,0.70
2022-10-01T09:10:46.362Z,0.40
2022-10-01T09:13:32.224Z,0.47
2022-10-01T09:16:08.135Z,0.30
2022-10-01T09:18:51.751Z,1.23
2022-10-01T09:21:24.157Z,0.57
2022-10-01T09:24:05.014Z,0.20
2022-10-01T09:26:33.467Z,0.53
2022-10-01T09:29:02.564Z,0.90
2022-10-01T09:31:40.732Z,0.70
2022-10-01T09:34:14.370Z,1.50
2022-10-01T09:36:48.662Z,1.20
2022-10-01T09:39:25.534Z,0.27
2022-10-01T09:41:53.375Z,0.40
2022-10-01T09:44:29.130Z,2.23
2022-10-01T09:46:57.967Z,0.20
2022-10-01T09:49:33.755Z,0.40
2022-10-01T09:52:07.479Z,0.67
2022-10-01T09:54:43.447Z,0.23
2022-10-01T09:57:14.961Z,0.30
2022-10-01T09:59:53.032Z,0.20
2022-10-01T10:02:26.545Z,0.57
2022-10-01T10:05:01.639Z,0.77
2022-10-01T10:07:32.437Z,0.33
2022-10-01T10:10:12.968Z,0.30
2022-10-01T10:12:44.043Z,0.30
2022-10-01T10:15:18.061Z,0.93
2022-10-01T10:17:49.057Z,1.50
2022-10-01T10:20:25.601Z,0.20
2022-10-01T10:22:53.452Z,2.27
2022-10-01T10:25:25.279Z,0.50
2022-10-01T10:27:59.578Z,0.30
2022-10-01T10:30:27.902Z,0.45
2022-10-01T10:33:04.854Z,0.45
2022-10-01T10:35:32.992Z,1.52
2022-10-01T10:38:02.267Z,1.15
2022-10-01T10:40:36.006Z,0.30
2022-10-01T10:43:03.831Z,0.10
2022-10-01T10:45:36.558Z,1.13
2022-10-01T10:48:07.742Z,0.40
2022-10-01T10:50:39.144Z,1.58
2022-10-01T10:53:21.951Z,0.90
2022-10-01T10:56:00.211Z,1.75
2022-10-01T10:58:29.811Z,0.40
2022-10-01T11:01:01.267Z,0.73
2022-10-01T11:03:32.161Z,1.03
2022-10-01T11:06:11.280Z,0.75
2022-10-01T11:08:40.611Z,1.65
2022-10-01T11:11:30.903Z,0.30
2022-10-01T11:14:10.360Z,0.63
2022-10-01T11:16:51.507Z,3.30
2022-10-01T11:19:40.019Z,0.20
2022-10-01T11:22:19.663Z,1.15
2022-10-01T11:25:02.879Z,0.98
2022-10-01T11:27:43.201Z,0.28
2022-10-01T11:30:16.342Z,0.82
2022-10-01T11:32:51.156Z,0.20
2022-10-01T11:35:50.141Z,1.45
2022-10-01T11:38:45.769Z,0.90
2022-10-01T11:41:23.044Z,1.13
2022-10-01T11:43:54.725Z,2.28
2022-10-01T11:46:34.554Z,2.25
2022-10-01T11:49:12.942Z,2.03
2022-10-01T11:51:47.590Z,1.95
2022-10-01T11:54:22.113Z,2.42
2022-10-01T11:57:09.388Z,0.68
2022-10-01T11:59:42.429Z,2.13
2022-10-01T12:02:19.451Z,2.38
2022-10-01T12:04:53.421Z,1.25
2022-10-01T12:07:28.258Z,2.08
2022-10-01T12:10:01.701Z,2.47
2022-10-01T12:12:35.955Z,1.67
2022-10-01T12:15:13.337Z,0.40
2022-10-01T12:17:48.772Z,1.30
2022-10-01T12:20:28.636Z,1.25
2022-10-01T12:22:59.002Z,1.90
2022-10-01T12:25:37.968Z,1.75
2022-10-01T12:28:10.619Z,2.65
2022-10-01T12:30:47.272Z,2.30
2022-10-01T12:33:43.348Z,1.08
2022-10-01T12:36:21.811Z,1.25
2022-10-01T12:39:02.598Z,1.17
2022-10-01T12:41:42.049Z,2.03
2022-10-01T12:44:29.646Z,0.95
2022-10-01T12:47:15.005Z,1.65
2022-10-01T12:49:50.394Z,1.10
2022-10-01T12:52:34.330Z,2.00
2022-10-01T12:55:24.138Z,1.45
2022-10-01T12:58:00.046Z,1.73
2022-10-01T13:00:31.951Z,1.65
2022-10-01T13:03:32.024Z,2.83
2022-10-01T13:06:15.967Z,2.40
2022-10-01T13:08:55.226Z,1.95
2022-10-01T13:11:42.506Z,2.40
2022-10-01T13:14:14.062Z,2.80
2022-10-01T13:16:54.291Z,1.88
2022-10-01T13:19:31.985Z,4.15
2022-10-01T13:22:09.906Z,1.38
2022-10-01T13:24:43.241Z,2.70
2022-10-01T13:27:18.626Z,2.70
2022-10-01T13:29:55.625Z,1.85
2022-10-01T13:32:27.949Z,1.80
2022-10-01T13:34:58.550Z,2.80
2022-10-01T13:37:35.016Z,1.55
2022-10-01T13:40:03.117Z,0.90
2022-10-01T13:42:38.530Z,2.53
2022-10-01T13:45:08.808Z,2.90
2022-10-01T13:47:41.189Z,5.32
2022-10-01T13:50:23.679Z,8.93
2022-10-01T13:52:51.610Z,7.80
2022-10-01T13:55:28.608Z,4.00
2022-10-01T13:58:03.995Z,3.40
2022-10-01T14:00:31.595Z,2.92
2022-10-01T14:03:03.909Z,2.72
2022-10-01T14:05:37.168Z,2.10
2022-10-01T14:08:13.334Z,1.75
2022-10-01T14:10:59.417Z,2.58
2022-10-01T14:13:47.443Z,3.28
2022-10-01T14:16:16.182Z,7.10
2022-10-01T14:18:48.730Z,2.88
2022-10-01T14:21:36.546Z,2.35
2022-10-01T14:24:17.054Z,1.95
2022-10-01T14:26:52.384Z,1.50
2022-10-01T14:29:33.719Z,3.10
2022-10-01T14:32:15.773Z,4.10
2022-10-01T14:34:55.698Z,1.90
2022-10-01T14:37:24.832Z,2.25
2022-10-01T14:40:02.517Z,4.45
2022-10-01T14:42:30.209Z,2.60
2022-10-01T14:44:57.802Z,2.38
2022-10-01T14:47:27.779Z,2.55
2022-10-01T14:49:56.093Z,3.30
2022-10-01T14:52:29.102Z,6.30
2022-10-01T14:55:01.151Z,2.33
2022-10-01T14:57:31.648Z,8.73
2022-10-01T15:00:02.257Z,2.33
2022-10-01T15:02:29.902Z,4.57
2022-10-01T15:04:58.341Z,5.30
2022-10-01T15:07:35.773Z,2.08
2022-10-01T15:10:08.052Z,3.85
2022-10-01T15:12:40.769Z,6.97
2022-10-01T15:15:18.712Z,2.20
2022-10-01T15:17:46.662Z,10.05
2022-10-01T15:20:14.946Z,4.47
2022-10-01T15:22:45.485Z,6.88
2022-10-01T15:25:20.736Z,4.70
2022-10-01T15:27:49.609Z,2.90
2022-10-01T15:30:19.136Z,3.97
2022-10-01T15:32:47.630Z,3.67
2022-10-01T15:35:19.182Z,1.80
2022-10-01T15:37:50.391Z,2.13
2022-10-01T15:40:26.328Z,2.67
2022-10-01T15:43:14.362Z,2.63
2022-10-01T15:45:42.678Z,4.35
2022-10-01T15:48:29.850Z,57.42
2022-10-01T15:51:02.112Z,16.88
2022-10-01T15:53:31.758Z,24.58
2022-10-01T15:56:01.717Z,10.25
2022-10-01T15:58:32.403Z,16.15
2022-10-01T16:01:04.331Z,8.15
2022-10-01T16:03:35.178Z,7.38
2022-10-01T16:06:04.946Z,8.35
2022-10-01T16:08:37.391Z,6.78
2022-10-01T16:11:18.938Z,8.65
2022-10-01T16:13:48.688Z,12.43
2022-10-01T16:16:26.344Z,14.20
2022-10-01T16:18:58.004Z,8.38
2022-10-01T16:21:26.426Z,32.17
2022-10-01T16:23:56.709Z,30.27
2022-10-01T16:26:40.008Z,22.67
2022-10-01T18:00:13.865Z,6.30
2022-10-01T18:02:43.548Z,6.45
2022-10-01T18:05:12.531Z,10.80
2022-10-01T18:07:40.944Z,6.82
2022-10-01T18:10:11.678Z,9.13
2022-10-01T18:12:39.453Z,6.85
2022-10-01T18:15:08.214Z,4.45
2022-10-01T18:17:43.011Z,6.18
2022-10-01T18:20:12.762Z,9.10
2022-10-01T18:22:40.435Z,9.85
2022-10-01T18:25:08.773Z,5.20
2022-10-01T18:27:36.609Z,6.32
2022-10-01T18:30:04.487Z,10.00
2022-10-01T18:32:37.374Z,10.35
2022-10-01T18:35:14.937Z,11.35
2022-10-01T18:37:47.686Z,8.20
2022-10-01T18:40:19.404Z,9.85
2022-10-01T18:42:52.296Z,6.55
2022-10-01T18:45:31.627Z,10.85
2022-10-01T18:48:14.544Z,11.70
2022-10-01T18:50:50.408Z,12.15
2022-10-01T18:53:37.372Z,10.85
2022-10-01T18:56:20.013Z,18.20
2022-10-01T18:59:18.555Z,14.00
2022-10-01T19:01:56.783Z,12.05
2022-10-01T19:04:45.685Z,11.90
2022-10-01T19:07:28.195Z,10.90
2022-10-01T19:10:09.105Z,11.18
2022-10-01T19:12:50.063Z,17.80
2022-10-01T19:15:27.084Z,19.65
2022-10-01T19:18:08.338Z,11.25
2022-10-01T19:20:55.119Z,12.40
2022-10-01T19:23:53.200Z,15.65
2022-10-01T19:26:29.442Z,12.02
2022-10-01T19:29:14.261Z,13.20
2022-10-01T19:31:50.205Z,13.48
2022-10-01T19:34:23.582Z,16.80
2022-10-01T19:36:56.022Z,11.95
2022-10-01T19:39:27.237Z,10.18
2022-10-01T19:42:02.035Z,11.68
2022-10-01T19:44:36.421Z,13.40
2022-10-01T19:47:16.542Z,12.65
2022-10-01T19:49:48.692Z,9.60
2022-10-01T19:52:18.260Z,11.73
2022-10-01T19:54:49.761Z,14.82
2022-10-01T19:57:23.515Z,10.90
2022-10-01T19:59:57.272Z,11.35
2022-10-01T20:02:33.475Z,13.82
2022-10-01T20:05:04.826Z,47.42
2022-10-01T20:07:42.234Z,11.38
2022-10-01T20:10:19.859Z,14.88
2022-10-01T20:12:56.826Z,9.50
2022-10-01T20:15:39.730Z,12.68
2022-10-01T20:18:19.251Z,12.55
2022-10-01T20:20:57.386Z,8.90
2022-10-01T20:23:37.884Z,13.38
2022-10-01T20:26:16.027Z,11.77
2022-10-01T20:29:03.992Z,12.80
2022-10-01T20:31:39.369Z,9.65
2022-10-01T20:34:18.422Z,12.88
2022-10-01T20:36:54.222Z,12.73
2022-10-01T20:39:26.897Z,14.05
2022-10-01T20:41:56.359Z,8.68
2022-10-01T20:44:28.909Z,9.52
2022-10-01T20:47:01.937Z,15.48
2022-10-01T20:49:35.262Z,11.52
2022-10-01T20:52:12.291Z,12.05
2022-10-01T20:54:44.931Z,10.90
2022-10-01T20:57:20.307Z,16.35
2022-10-01T20:59:52.842Z,14.43
2022-10-01T21:02:32.719Z,13.30
2022-10-01T21:05:05.361Z,9.60
2022-10-01T21:07:38.876Z,10.93
2022-10-01T21:10:19.853Z,14.27
2022-10-01T21:12:58.382Z,12.38
2022-10-01T21:15:39.661Z,12.80
2022-10-01T21:18:16.740Z,15.02
2022-10-01T21:20:57.473Z,15.13
2022-10-01T21:23:40.551Z,16.27
2022-10-01T21:26:14.925Z,14.10
2022-10-01T21:29:04.692Z,11.82
2022-10-01T21:31:44.886Z,19.02
2022-10-01T21:34:15.031Z,14.93
2022-10-01T21:36:56.351Z,11.15
2022-10-01T21:39:32.778Z,12.90
2022-10-01T21:42:12.006Z,14.82
2022-10-01T21:45:12.105Z,13.65
2022-10-01T21:48:00.496Z,14.25
2022-10-01T21:50:38.417Z,19.95
2022-10-01T21:53:19.698Z,16.77
2022-10-01T21:56:03.417Z,13.75
2022-10-01T21:58:49.634Z,12.80
2022-10-01T22:01:25.224Z,19.23
2022-10-01T22:04:01.996Z,12.38
2022-10-01T22:06:36.221Z,15.27
2022-10-01T22:09:14.045Z,11.93
2022-10-01T22:11:48.727Z,15.52
2022-10-01T22:14:18.531Z,17.95
2022-10-01T22:16:52.259Z,15.88
2022-10-01T22:19:26.870Z,10.80
2022-10-01T22:21:59.947Z,16.77
2022-10-01T22:24:32.913Z,22.83
2022-10-01T22:27:12.491Z,14.35
2022-10-01T22:29:45.413Z,61.35
2022-10-01T22:32:16.365Z,46.85
2022-10-01T22:34:50.143Z,36.70
2022-10-01T22:37:22.415Z,29.33
2022-10-01T22:39:55.614Z,45.97
2022-10-01T22:42:28.829Z,34.67
2022-10-01T22:44:56.563Z,34.08
2022-10-01T22:47:44.106Z,30.95
2022-10-01T22:50:28.702Z,16.10
2022-10-01T22:53:09.286Z,12.10
2022-10-01T22:55:48.147Z,10.10
2022-10-01T22:58:33.515Z,9.23
2022-10-01T23:01:12.918Z,6.38
2022-10-01T23:03:51.148Z,7.88
2022-10-01T23:06:30.213Z,7.20
2022-10-01T23:09:04.575Z,12.73
2022-10-01T23:11:41.038Z,13.88
2022-10-01T23:14:23.466Z,10.82
2022-10-01T23:16:57.057Z,14.93
2022-10-01T23:19:36.849Z,11.90
2022-10-01T23:22:17.111Z,9.68
2022-10-01T23:25:01.356Z,19.25
2022-10-01T23:27:40.990Z,11.10
2022-10-01T23:30:11.935Z,13.68
2022-10-01T23:32:51.897Z,10.38
2022-10-01T23:35:21.718Z,10.93
2022-10-01T23:38:07.675Z,10.63
2022-10-01T23:40:39.709Z,9.55
2022-10-01T23:43:12.497Z,5.18
2022-10-01T23:45:46.075Z,10.18
2022-10-01T23:48:19.098Z,7.95
2022-10-01T23:50:54.979Z,8.80
2022-10-01T23:53:28.715Z,9.38
2022-10-01T23:56:21.387Z,5.88
2022-10-01T23:58:54.919Z,7.43
